createdAt,value
2023-03-06T00:00:45.984Z,64.58
2023-03-06T00:03:12.825Z,62.65
2023-03-06T00:05:40.543Z,54.31
2023-03-06T00:08:07.412Z,55.40
2023-03-06T00:10:34.598Z,59.51
2023-03-06T00:13:06.651Z,63.29
2023-03-06T00:15:34.094Z,65.35
2023-03-06T00:18:04.232Z,57.89
2023-03-06T00:20:31.419Z,54.33
2023-03-06T00:22:58.578Z,57.66
2023-03-06T00:25:25.669Z,61.35
2023-03-06T00:27:53.050Z,66.36
2023-03-06T00:30:23.384Z,62.82
2023-03-06T00:32:50.714Z,55.73
2023-03-06T00:35:17.779Z,55.39
2023-03-06T00:37:45.362Z,59.33
2023-03-06T00:40:15.844Z,63.29
2023-03-06T00:42:42.907Z,65.95
2023-03-06T00:45:10.540Z,59.45
2023-03-06T00:47:39.180Z,54.01
2023-03-06T00:50:07.060Z,56.28
2023-03-06T00:52:33.978Z,60.65
2023-03-06T00:55:00.818Z,66.49
2023-03-06T00:57:27.749Z,64.69
2023-03-06T00:59:55.036Z,56.20
2023-03-06T01:02:22.259Z,55.58
2023-03-06T01:04:49.166Z,59.66
2023-03-06T01:07:16.096Z,62.92
2023-03-06T01:09:43.030Z,66.74
2023-03-06T01:12:10.134Z,60.23
2023-03-06T01:14:37.089Z,55.02
2023-03-06T01:17:04.210Z,57.61
2023-03-06T01:19:31.295Z,60.20
2023-03-06T01:21:58.173Z,66.52
2023-03-06T01:24:26.104Z,64.20
2023-03-06T01:26:56.321Z,57.04
2023-03-06T01:29:23.364Z,56.02
2023-03-06T01:31:50.368Z,59.54
2023-03-06T01:34:17.256Z,61.35
2023-03-06T01:36:44.330Z,68.24
2023-03-06T01:39:11.153Z,66.77
2023-03-06T01:41:38.042Z,58.07
2023-03-06T01:44:04.997Z,52.51
2023-03-06T01:46:34.029Z,55.87
2023-03-06T01:49:25.186Z,59.85
2023-03-06T01:51:53.946Z,66.43
2023-03-06T01:54:24.133Z,63.75
2023-03-06T01:56:56.479Z,53.60
2023-03-06T01:59:27.096Z,54.76
2023-03-06T02:01:55.735Z,58.59
2023-03-06T02:04:23.760Z,61.79
2023-03-06T02:06:51.010Z,68.39
2023-03-06T02:09:17.969Z,63.90
2023-03-06T02:11:46.401Z,56.27
2023-03-06T02:14:22.598Z,56.05
2023-03-06T02:16:50.144Z,61.04
2023-03-06T02:19:40.111Z,66.56
2023-03-06T02:22:07.436Z,61.63
2023-03-06T02:24:42.838Z,54.57
2023-03-06T02:27:12.628Z,56.10
2023-03-06T02:29:39.430Z,59.53
2023-03-06T02:32:06.865Z,65.14
2023-03-06T02:34:37.372Z,65.10
2023-03-06T02:37:10.805Z,57.07
2023-03-06T02:39:46.110Z,56.01
2023-03-06T02:42:25.245Z,59.97
2023-03-06T02:44:55.303Z,66.00
2023-03-06T02:47:22.354Z,64.93
2023-03-06T02:49:49.511Z,56.75
2023-03-06T02:52:18.423Z,54.04
2023-03-06T02:54:45.310Z,56.93
2023-03-06T02:57:12.813Z,59.99
2023-03-06T02:59:39.940Z,67.24
2023-03-06T03:02:06.997Z,66.32
2023-03-06T03:04:34.717Z,60.07
2023-03-06T03:07:02.069Z,52.88
2023-03-06T03:09:29.002Z,54.04
2023-03-06T03:11:55.846Z,58.06
2023-03-06T03:14:25.049Z,61.61
2023-03-06T03:16:59.838Z,68.88
2023-03-06T03:19:26.843Z,64.40
2023-03-06T03:21:53.914Z,55.66
2023-03-06T03:24:22.819Z,55.18
2023-03-06T03:26:50.380Z,58.68
2023-03-06T03:29:19.036Z,62.07
2023-03-06T03:31:45.893Z,69.49
2023-03-06T03:34:12.829Z,66.71
2023-03-06T03:36:40.193Z,61.56
2023-03-06T03:39:08.104Z,56.15
2023-03-06T03:41:35.358Z,56.65
2023-03-06T03:44:04.475Z,59.97
2023-03-06T03:46:32.170Z,66.38
2023-03-06T03:49:01.602Z,64.74
2023-03-06T03:51:28.743Z,59.34
2023-03-06T03:53:58.326Z,54.38
2023-03-06T03:56:27.088Z,56.27
2023-03-06T03:59:04.308Z,59.44
2023-03-06T04:01:38.388Z,65.17
2023-03-06T04:04:06.766Z,67.01
2023-03-06T04:06:33.799Z,60.63
2023-03-06T04:09:01.044Z,54.60
2023-03-06T04:11:27.975Z,56.04
2023-03-06T04:13:55.188Z,60.37
2023-03-06T04:16:22.246Z,66.13
2023-03-06T04:18:50.556Z,65.76
2023-03-06T04:21:17.563Z,61.08
2023-03-06T04:23:44.976Z,54.01
2023-03-06T04:26:12.871Z,53.57
2023-03-06T04:28:39.690Z,56.49
2023-03-06T04:31:06.849Z,59.59
2023-03-06T04:33:35.013Z,65.98
2023-03-06T04:36:01.902Z,65.34
2023-03-06T04:38:30.604Z,60.81
2023-03-06T04:40:57.510Z,54.01
2023-03-06T04:43:24.529Z,53.59
2023-03-06T04:45:51.481Z,58.82
2023-03-06T04:48:19.275Z,63.15
2023-03-06T04:50:46.457Z,67.81
2023-03-06T04:53:14.773Z,62.93
2023-03-06T04:55:41.745Z,57.64
2023-03-06T04:58:08.573Z,57.18
2023-03-06T05:00:35.505Z,61.25
2023-03-06T05:03:02.766Z,65.95
2023-03-06T05:05:29.788Z,65.02
2023-03-06T05:07:57.588Z,58.98
2023-03-06T05:10:24.427Z,56.11
2023-03-06T05:12:51.539Z,58.86
2023-03-06T05:15:18.552Z,65.55
2023-03-06T05:17:47.630Z,65.69
2023-03-06T05:20:15.585Z,60.26
2023-03-06T05:22:43.081Z,53.41
2023-03-06T05:25:10.898Z,55.04
2023-03-06T05:27:38.194Z,57.87
2023-03-06T05:30:06.061Z,64.18
2023-03-06T05:32:35.529Z,66.84
2023-03-06T05:35:04.092Z,60.71
2023-03-06T05:37:31.615Z,53.82
2023-03-06T05:39:58.986Z,54.74
2023-03-06T05:42:28.268Z,57.79
2023-03-06T05:44:55.361Z,60.14
2023-03-06T05:47:22.241Z,61.15
2023-03-06T05:49:49.100Z,62.23
2023-03-06T05:52:17.651Z,61.76
2023-03-06T05:54:44.653Z,61.39
2023-03-06T05:57:11.528Z,60.64
2023-03-06T05:59:38.367Z,59.98
2023-03-06T06:02:05.916Z,58.90
2023-03-06T06:04:32.866Z,58.13
2023-03-06T06:07:01.143Z,56.86
2023-03-06T06:09:28.960Z,55.65
2023-03-06T06:11:58.865Z,54.15
2023-03-06T06:14:25.771Z,53.21
2023-03-06T06:16:52.852Z,52.66
2023-03-06T06:19:20.617Z,51.16
2023-03-06T06:21:54.018Z,50.11
2023-03-06T06:24:26.237Z,48.95
2023-03-06T06:26:55.389Z,47.74
2023-03-06T06:29:23.282Z,46.76
2023-03-06T06:31:51.248Z,45.74
2023-03-06T06:34:19.274Z,44.54
2023-03-06T06:36:46.401Z,43.76
2023-03-06T06:39:18.538Z,42.98
2023-03-06T06:42:03.029Z,41.82
2023-03-06T06:44:37.407Z,41.01
2023-03-06T06:47:24.095Z,39.94
2023-03-06T06:49:56.416Z,38.56
2023-03-06T06:52:25.211Z,37.75
2023-03-06T06:54:52.973Z,36.72
2023-03-06T06:57:20.485Z,35.94
2023-03-06T06:59:47.415Z,36.12
2023-03-06T07:02:16.536Z,35.07
2023-03-06T07:05:01.962Z,33.89
2023-03-06T07:07:31.318Z,33.78
2023-03-06T07:09:58.285Z,33.93
2023-03-06T07:12:25.238Z,32.55
2023-03-06T07:14:52.104Z,32.40
2023-03-06T07:17:19.070Z,31.91
2023-03-06T07:19:46.062Z,31.57
2023-03-06T07:22:13.370Z,30.57
2023-03-06T07:24:40.299Z,30.77
2023-03-06T07:27:07.263Z,30.75
2023-03-06T07:29:34.764Z,30.80
2023-03-06T07:32:02.203Z,29.73
2023-03-06T07:34:29.295Z,29.57
2023-03-06T07:36:56.279Z,29.27
2023-03-06T07:39:23.348Z,28.82
2023-03-06T07:41:50.712Z,28.20
2023-03-06T07:44:17.764Z,27.51
2023-03-06T07:46:44.636Z,27.12
2023-03-06T07:49:11.727Z,26.07
2023-03-06T07:51:38.543Z,25.98
2023-03-06T07:54:05.570Z,25.76
2023-03-06T07:56:35.199Z,25.39
2023-03-06T07:59:02.392Z,24.66
2023-03-06T08:01:29.387Z,24.36
2023-03-06T08:03:56.977Z,23.74
2023-03-06T08:06:26.349Z,23.74
2023-03-06T08:08:55.724Z,23.64
2023-03-06T08:11:26.191Z,23.40
2023-03-06T08:13:54.344Z,22.77
2023-03-06T08:16:23.478Z,22.83
2023-03-06T08:18:51.111Z,23.06
2023-03-06T08:21:20.988Z,23.01
2023-03-06T08:23:48.324Z,22.46
2023-03-06T08:26:24.165Z,22.52
2023-03-06T08:28:52.726Z,23.20
2023-03-06T08:31:39.484Z,24.41
2023-03-06T08:34:15.460Z,25.66
2023-03-06T08:36:42.401Z,26.87
2023-03-06T08:39:10.061Z,27.66
2023-03-06T08:41:37.974Z,28.80
2023-03-06T08:44:05.536Z,30.21
2023-03-06T08:46:34.447Z,31.77
2023-03-06T08:49:02.105Z,31.99
2023-03-06T08:51:29.478Z,32.44
2023-03-06T08:53:58.088Z,32.84
2023-03-06T08:56:30.973Z,34.29
2023-03-06T08:59:00.426Z,35.33
2023-03-06T09:01:30.304Z,36.19
2023-03-06T09:04:00.542Z,36.57
2023-03-06T09:06:32.015Z,36.68
2023-03-06T09:08:59.586Z,37.24
2023-03-06T09:11:27.715Z,37.63
2023-03-06T09:13:55.797Z,38.27
2023-03-06T09:16:23.549Z,38.75
2023-03-06T09:18:53.126Z,38.82
2023-03-06T09:21:25.163Z,38.88
2023-03-06T09:23:52.459Z,39.45
2023-03-06T09:26:19.455Z,39.04
2023-03-06T09:28:47.409Z,38.09
2023-03-06T09:31:17.652Z,35.98
2023-03-06T09:33:45.773Z,35.44
2023-03-06T09:36:21.150Z,35.90
2023-03-06T09:38:50.226Z,36.16
2023-03-06T09:41:27.694Z,36.48
2023-03-06T09:44:09.300Z,35.15
2023-03-06T09:47:08.089Z,34.70
2023-03-06T09:50:12.899Z,34.35
2023-03-06T09:53:09.010Z,34.82
2023-03-06T09:55:38.969Z,36.07
2023-03-06T09:58:08.930Z,36.66
2023-03-06T10:00:57.102Z,37.45
2023-03-06T10:03:31.300Z,37.44
2023-03-06T10:06:13.140Z,37.87
2023-03-06T10:08:48.675Z,38.81
2023-03-06T10:11:24.008Z,39.54
2023-03-06T10:13:59.227Z,39.70
2023-03-06T10:16:30.964Z,40.22
2023-03-06T10:19:04.144Z,40.87
2023-03-06T10:21:58.408Z,41.46
2023-03-06T10:24:37.753Z,41.86
2023-03-06T10:27:10.878Z,41.86
2023-03-06T10:30:01.233Z,41.45
2023-03-06T10:32:56.071Z,43.27
2023-03-06T10:35:30.450Z,43.29
2023-03-06T10:38:25.972Z,43.63
2023-03-06T10:41:21.822Z,44.33
2023-03-06T10:44:01.216Z,45.39
2023-03-06T10:46:49.880Z,47.05
2023-03-06T10:49:37.666Z,49.08
2023-03-06T10:52:21.961Z,50.66
2023-03-06T10:54:49.074Z,52.54
2023-03-06T10:57:31.370Z,53.94
2023-03-06T11:00:00.215Z,55.71
2023-03-06T11:02:37.514Z,55.46
2023-03-06T11:05:06.828Z,56.03
2023-03-06T11:07:36.510Z,56.69
2023-03-06T11:10:33.223Z,57.14
2023-03-06T11:13:01.591Z,59.11
2023-03-06T11:15:29.817Z,60.97
2023-03-06T11:18:10.390Z,61.78
2023-03-06T11:20:52.814Z,64.50
2023-03-06T11:23:37.989Z,56.15
2023-03-06T11:26:16.975Z,55.96
2023-03-06T11:28:56.106Z,58.43
2023-03-06T11:31:27.625Z,61.30
2023-03-06T11:34:18.765Z,62.40
2023-03-06T11:36:54.985Z,55.73
2023-03-06T11:39:25.141Z,53.89
2023-03-06T11:42:11.016Z,55.18
2023-03-06T11:44:49.508Z,57.72
2023-03-06T11:47:34.964Z,59.99
2023-03-06T11:50:11.125Z,60.81
2023-03-06T11:52:48.407Z,61.34
2023-03-06T11:55:29.584Z,63.21
2023-03-06T11:58:12.166Z,57.55
2023-03-06T12:01:01.033Z,53.79
2023-03-06T12:03:49.596Z,55.85
2023-03-06T12:06:33.267Z,58.29
2023-03-06T12:09:12.758Z,60.12
2023-03-06T12:11:57.902Z,61.57
2023-03-06T12:14:34.086Z,64.12
2023-03-06T12:17:42.536Z,57.78
2023-03-06T12:20:31.690Z,56.57
2023-03-06T12:23:22.778Z,58.92
2023-03-06T12:26:16.167Z,61.17
2023-03-06T12:29:05.346Z,66.46
2023-03-06T12:31:53.787Z,59.10
2023-03-06T12:34:30.948Z,55.40
2023-03-06T12:37:29.337Z,58.28
2023-03-06T12:40:17.892Z,61.30
2023-03-06T12:43:06.224Z,62.60
2023-03-06T12:45:34.686Z,56.29
2023-03-06T12:48:02.228Z,55.82
2023-03-06T12:50:37.235Z,59.83
2023-03-06T12:53:21.646Z,65.04
2023-03-06T12:55:51.036Z,58.51
2023-03-06T12:58:30.512Z,54.56
2023-03-06T13:01:06.329Z,58.24
2023-03-06T13:03:36.902Z,63.07
2023-03-06T13:06:14.241Z,62.42
2023-03-06T13:08:54.885Z,55.34
2023-03-06T13:11:44.331Z,57.73
2023-03-06T13:14:35.827Z,61.30
2023-03-06T13:17:23.174Z,66.19
2023-03-06T13:20:13.870Z,58.22
2023-03-06T13:22:42.055Z,57.08
2023-03-06T13:25:21.449Z,60.55
2023-03-06T13:27:54.908Z,64.61
2023-03-06T13:30:41.829Z,58.15
2023-03-06T13:33:44.503Z,57.14
2023-03-06T13:36:34.448Z,61.59
2023-03-06T13:39:06.960Z,62.67
2023-03-06T13:41:58.430Z,57.06
2023-03-06T13:44:25.397Z,59.49
2023-03-06T13:47:06.714Z,63.78
2023-03-06T13:49:35.985Z,60.19
2023-03-06T13:52:11.008Z,56.36
2023-03-06T13:54:51.473Z,60.19
2023-03-06T13:57:43.631Z,63.93
2023-03-06T14:00:26.014Z,58.68
2023-03-06T14:03:17.872Z,59.28
2023-03-06T14:05:51.006Z,63.51
2023-03-06T14:08:21.615Z,61.64
2023-03-06T14:10:59.576Z,57.68
2023-03-06T14:13:47.155Z,59.79
2023-03-06T14:16:21.428Z,64.64
2023-03-06T14:18:51.321Z,64.13
2023-03-06T14:21:32.202Z,58.12
2023-03-06T14:24:01.984Z,57.17
2023-03-06T14:26:41.066Z,62.02
2023-03-06T14:29:21.141Z,64.19
2023-03-06T14:31:53.945Z,60.84
2023-03-06T14:34:39.325Z,57.10
2023-03-06T14:37:19.727Z,58.63
2023-03-06T14:39:47.182Z,62.47
2023-03-06T14:42:20.161Z,64.38
2023-03-06T14:44:48.539Z,59.73
2023-03-06T14:47:25.323Z,54.96
2023-03-06T14:50:32.834Z,58.21
2023-03-06T14:53:06.772Z,63.22
2023-03-06T14:55:35.830Z,65.86
2023-03-06T14:58:15.357Z,57.87
2023-03-06T15:00:50.306Z,55.14
2023-03-06T15:03:36.123Z,59.09
2023-03-06T15:06:04.256Z,61.98
2023-03-06T15:08:35.460Z,67.33
2023-03-06T15:11:05.609Z,63.03
2023-03-06T15:13:34.139Z,56.31
2023-03-06T15:16:13.512Z,57.88
2023-03-06T15:18:56.038Z,60.47
2023-03-06T15:21:24.989Z,66.03
2023-03-06T15:23:53.872Z,63.85
2023-03-06T15:26:31.714Z,58.13
2023-03-06T15:29:08.992Z,55.28
2023-03-06T15:31:38.904Z,58.24
2023-03-06T15:34:12.103Z,62.40
2023-03-06T15:36:44.590Z,66.95
2023-03-06T15:39:35.339Z,62.83
2023-03-06T15:42:22.129Z,55.95
2023-03-06T15:44:55.663Z,57.72
2023-03-06T15:47:23.840Z,62.34
2023-03-06T15:49:53.387Z,66.15
2023-03-06T15:52:21.618Z,60.69
2023-03-06T15:54:49.443Z,57.18
2023-03-06T15:57:29.529Z,60.14
2023-03-06T15:59:58.532Z,64.75
2023-03-06T16:02:25.828Z,63.30
2023-03-06T16:04:53.799Z,59.93
2023-03-06T16:07:21.137Z,57.77
2023-03-06T16:09:48.126Z,60.85
2023-03-06T16:12:20.811Z,65.31
2023-03-06T16:14:49.332Z,62.90
2023-03-06T16:17:17.492Z,57.07
2023-03-06T16:19:44.660Z,58.16
2023-03-06T16:22:12.371Z,61.91
2023-03-06T16:24:39.421Z,65.91
2023-03-06T16:27:07.204Z,62.57
2023-03-06T16:29:35.321Z,57.24
2023-03-06T16:32:03.071Z,58.10
2023-03-06T16:34:30.257Z,61.46
2023-03-06T16:36:57.326Z,66.25
2023-03-06T16:39:25.206Z,61.87
2023-03-06T16:41:52.878Z,56.91
2023-03-06T16:44:21.137Z,58.21
2023-03-06T16:46:50.200Z,63.19
2023-03-06T16:49:23.331Z,65.56
2023-03-06T16:51:51.123Z,62.71
2023-03-06T16:54:18.626Z,58.10
2023-03-06T16:56:46.861Z,57.18
2023-03-06T16:59:14.239Z,60.98
2023-03-06T17:01:43.397Z,65.26
2023-03-06T17:04:11.501Z,61.88
2023-03-06T17:06:39.088Z,56.30
2023-03-06T17:09:06.137Z,57.69
2023-03-06T17:11:33.075Z,61.68
2023-03-06T17:14:01.554Z,66.41
2023-03-06T17:16:28.565Z,62.02
2023-03-06T17:18:55.737Z,55.50
2023-03-06T17:21:22.753Z,57.44
2023-03-06T17:23:51.155Z,61.16
2023-03-06T17:26:20.950Z,65.74
2023-03-06T17:28:48.578Z,60.00
2023-03-06T17:31:18.287Z,55.56
2023-03-06T17:33:46.048Z,58.03
2023-03-06T17:36:14.745Z,62.46
2023-03-06T17:38:42.510Z,65.54
2023-03-06T17:41:11.038Z,58.85
2023-03-06T17:43:39.480Z,57.34
2023-03-06T17:46:12.851Z,60.64
2023-03-06T17:48:40.179Z,66.39
2023-03-06T17:51:07.661Z,60.44
2023-03-06T17:53:35.007Z,56.65
2023-03-06T17:56:06.769Z,59.87
2023-03-06T17:58:34.372Z,64.83
2023-03-06T18:01:01.293Z,60.72
2023-03-06T18:03:28.229Z,55.61
2023-03-06T18:06:03.643Z,57.66
2023-03-06T18:08:32.500Z,62.78
2023-03-06T18:11:00.948Z,65.50
2023-03-06T18:13:28.062Z,58.82
2023-03-06T18:15:55.194Z,55.71
2023-03-06T18:18:22.523Z,59.87
2023-03-06T18:20:49.818Z,65.15
2023-03-06T18:23:16.789Z,60.48
2023-03-06T18:25:44.200Z,54.59
2023-03-06T18:28:12.988Z,57.90
2023-03-06T18:30:41.631Z,61.94
2023-03-06T18:33:10.322Z,66.95
2023-03-06T18:35:37.931Z,61.59
2023-03-06T18:38:05.165Z,55.42
2023-03-06T18:40:32.119Z,58.07
2023-03-06T18:42:59.060Z,62.01
2023-03-06T18:45:26.082Z,66.64
2023-03-06T18:47:53.000Z,61.77
2023-03-06T18:50:20.076Z,54.57
2023-03-06T18:52:47.119Z,55.90
2023-03-06T18:55:14.370Z,60.27
2023-03-06T18:57:41.650Z,65.81
2023-03-06T19:00:09.812Z,61.03
2023-03-06T19:02:36.946Z,55.96
2023-03-06T19:05:04.022Z,57.50
2023-03-06T19:07:30.976Z,61.80
2023-03-06T19:09:57.980Z,67.66
2023-03-06T19:12:24.917Z,63.56
2023-03-06T19:14:51.919Z,55.29
2023-03-06T19:17:19.023Z,56.53
2023-03-06T19:19:49.872Z,60.61
2023-03-06T19:22:16.788Z,66.56
2023-03-06T19:24:43.847Z,61.07
2023-03-06T19:27:11.678Z,55.21
2023-03-06T19:29:38.840Z,57.08
2023-03-06T19:32:06.096Z,60.91
2023-03-06T19:34:33.149Z,66.14
2023-03-06T19:37:00.185Z,61.48
2023-03-06T19:39:27.144Z,55.29
2023-03-06T19:41:54.178Z,57.20
2023-03-06T19:44:21.119Z,61.51
2023-03-06T19:46:47.917Z,66.53
2023-03-06T19:49:18.188Z,61.81
2023-03-06T19:51:45.257Z,55.75
2023-03-06T19:54:13.495Z,57.85
2023-03-06T19:56:41.028Z,61.84
2023-03-06T19:59:07.979Z,67.03
2023-03-06T20:01:34.895Z,61.71
2023-03-06T20:04:03.501Z,55.88
2023-03-06T20:06:37.742Z,58.25
2023-03-06T20:09:08.282Z,63.23
2023-03-06T20:11:35.361Z,64.67
2023-03-06T20:14:04.359Z,57.30
2023-03-06T20:16:32.499Z,56.52
2023-03-06T20:19:00.918Z,60.45
2023-03-06T20:21:30.387Z,66.68
2023-03-06T20:23:58.386Z,62.54
2023-03-06T20:26:28.413Z,55.54
2023-03-06T20:28:56.175Z,56.69
2023-03-06T20:31:25.886Z,60.50
2023-03-06T20:33:54.599Z,65.52
2023-03-06T20:36:24.488Z,63.80
2023-03-06T20:38:51.318Z,57.98
2023-03-06T20:41:24.546Z,55.83
2023-03-06T20:43:51.925Z,58.99
2023-03-06T20:46:21.736Z,61.92
2023-03-06T20:48:51.017Z,66.26
2023-03-06T20:51:21.199Z,60.18
2023-03-06T20:53:50.973Z,54.74
2023-03-06T20:56:21.136Z,57.50
2023-03-06T20:58:48.106Z,61.64
2023-03-06T21:01:23.661Z,65.77
2023-03-06T21:03:51.391Z,58.81
2023-03-06T21:06:19.407Z,57.19
2023-03-06T21:08:47.150Z,61.08
2023-03-06T21:11:14.533Z,64.97
2023-03-06T21:13:42.548Z,61.20
2023-03-06T21:16:19.257Z,55.42
2023-03-06T21:18:46.786Z,57.52
2023-03-06T21:21:21.882Z,62.41
2023-03-06T21:23:49.797Z,64.09
2023-03-06T21:26:29.249Z,56.93
2023-03-06T21:28:59.092Z,58.64
2023-03-06T21:31:27.278Z,64.44
2023-03-06T21:33:55.005Z,62.09
2023-03-06T21:36:22.865Z,55.57
2023-03-06T21:38:51.457Z,58.26
2023-03-06T21:41:20.235Z,63.26
2023-03-06T21:43:48.031Z,64.33
2023-03-06T21:46:15.584Z,56.73
2023-03-06T21:48:42.504Z,56.98
2023-03-06T21:51:13.031Z,61.32
2023-03-06T21:53:43.404Z,64.74
2023-03-06T21:56:11.614Z,57.67
2023-03-06T21:58:39.000Z,58.44
2023-03-06T22:01:17.895Z,63.38
2023-03-06T22:03:45.235Z,63.26
2023-03-06T22:06:15.820Z,56.82
2023-03-06T22:08:43.660Z,58.26
2023-03-06T22:11:16.143Z,62.64
2023-03-06T22:13:44.106Z,65.76
2023-03-06T22:16:11.709Z,58.60
2023-03-06T22:18:39.118Z,56.50
2023-03-06T22:21:10.501Z,60.56
2023-03-06T22:23:37.436Z,66.27
2023-03-06T22:26:13.026Z,61.75
2023-03-06T22:28:41.797Z,55.70
2023-03-06T22:31:21.756Z,58.41
2023-03-06T22:33:53.064Z,61.98
2023-03-06T22:36:21.203Z,67.37
2023-03-06T22:38:49.615Z,62.20
2023-03-06T22:41:19.945Z,55.45
2023-03-06T22:43:46.915Z,56.99
2023-03-06T22:46:16.817Z,61.22
2023-03-06T22:48:44.849Z,66.81
2023-03-06T22:51:20.520Z,59.13
2023-03-06T22:53:48.844Z,55.74
2023-03-06T22:56:18.549Z,59.48
2023-03-06T22:58:45.494Z,64.33
2023-03-06T23:01:15.523Z,60.73
2023-03-06T23:03:44.965Z,55.45
2023-03-06T23:06:15.217Z,57.90
2023-03-06T23:08:43.481Z,62.48
2023-03-06T23:11:13.164Z,64.07
2023-03-06T23:13:59.198Z,56.81
2023-03-06T23:16:45.539Z,58.32
2023-03-06T23:19:31.394Z,64.13
2023-03-06T23:22:17.088Z,65.07
2023-03-06T23:25:03.031Z,56.54
2023-03-06T23:27:29.966Z,55.64
2023-03-06T23:29:59.241Z,59.64
2023-03-06T23:32:26.248Z,65.32
2023-03-06T23:34:53.311Z,62.48
2023-03-06T23:37:20.676Z,55.78
2023-03-06T23:39:48.001Z,56.23
2023-03-06T23:42:15.221Z,59.91
2023-03-06T23:44:42.152Z,66.05
2023-03-06T23:47:09.024Z,64.58
2023-03-06T23:49:36.201Z,56.68
2023-03-06T23:52:04.656Z,55.91
2023-03-06T23:54:33.337Z,58.83
2023-03-06T23:57:00.436Z,61.84
2023-03-06T23:59:27.440Z,66.57
